Ranfurly, Alberta

Past 24 Hour Conditions

This table is a summary of hourly weather conditions for the past 24 hours. This summary includes the following parameters: temperature, humidity, dew point, wind speed and direction, air pressure, visibility and/or wind chill and humidex.
Date / Time
(MDT)
Conditions Temp (°F) Humidity (%) Dew Point (°F) Wind (mph) Pressure (inches) Visibility (miles)
01 September 2014
16:00 N/A 60 51 42 WNW 6 29.8 N/A
15:00 N/A 61 46 40 NW 8 29.8 N/A
14:00 N/A 61 45 40 WNW 8 29.8 N/A
13:00 N/A 62 40 38 WNW 6 29.8 N/A
12:00 N/A 63 39 38 WNW 9 29.8 N/A
11:00 N/A 61 47 41 WNW 7 29.8 N/A
10:00 N/A 56 63 43 W 3 29.8 N/A
9:00 N/A 51 73 42 WNW 4 29.8 N/A
8:00 N/A 46 84 42 W 3 29.8 N/A
7:00 N/A 40   93 38 W 3 29.8 N/A
6:00 N/A 40   91 38 WSW 5 29.8 N/A
5:00 N/A 42 90 39 WSW 7 29.8 N/A
4:00 N/A 43 91 41 W 7 29.8 N/A
3:00 N/A 43 91 41 WSW 8 29.8 N/A
2:00 N/A 43 90 41 WSW 8 29.8 N/A
1:00 N/A 47 79 41 NW 4 29.8 N/A
00:00 N/A 48 79 42 WNW 4 29.8 N/A
31 August 2014
23:00 N/A 49 75 42 W 9 29.8 N/A
22:00 N/A 51 74 43 W 6 29.8 N/A
21:00 N/A 55 62 42 W 8 29.8 N/A
20:00 N/A 58 53 40 WNW 5 29.8 N/A
19:00 N/A 62 41 38 WNW 8 29.8 N/A
18:00 N/A 61 44 39 W 7 29.8 N/A
17:00 N/A 62 42 39 NW 12 gust 22 29.7 N/A
16:00 N/A 66   33 36 W 10 gust 21 29.7 N/A
N/A
Not available
 ↑ 
Highest temperature
 ↓ 
Lowest temperature

If you require additional historical weather information, please visit Climate Data Online.